createdAt,value
2022-10-30T00:00:40.545Z,15.40
2022-10-30T00:03:13.407Z,12.52
2022-10-30T00:08:08.142Z,14.45
2022-10-30T00:10:34.866Z,14.35
2022-10-30T00:13:02.545Z,16.25
2022-10-30T00:15:29.295Z,13.48
2022-10-30T00:17:56.479Z,14.70
2022-10-30T00:20:23.670Z,14.60
2022-10-30T00:22:50.460Z,14.48
2022-10-30T00:25:17.424Z,15.32
2022-10-30T00:27:44.160Z,16.02
2022-10-30T00:30:11.753Z,14.93
2022-10-30T00:32:38.538Z,13.57
2022-10-30T00:35:05.600Z,14.90
2022-10-30T00:37:32.343Z,15.13
2022-10-30T00:39:59.052Z,15.63
2022-10-30T00:42:30.284Z,14.32
2022-10-30T00:44:57.047Z,13.25
2022-10-30T00:47:35.728Z,13.15
2022-10-30T00:50:19.358Z,13.57
2022-10-30T00:52:56.959Z,14.88
2022-10-30T00:55:31.851Z,15.05
2022-10-30T00:58:01.458Z,14.82
2022-10-30T01:00:29.409Z,17.00
2022-10-30T01:02:57.668Z,13.95
2022-10-30T01:05:27.684Z,15.63
2022-10-30T01:07:54.699Z,14.55
2022-10-30T01:10:22.327Z,13.63
2022-10-30T01:12:51.395Z,15.00
2022-10-30T01:15:23.347Z,14.15
2022-10-30T01:18:13.391Z,14.02
2022-10-30T01:21:00.747Z,13.75
2022-10-30T01:23:27.455Z,13.32
2022-10-30T01:26:10.015Z,15.70
2022-10-30T01:29:03.049Z,15.77
2022-10-30T01:31:38.683Z,13.63
2022-10-30T01:34:17.603Z,12.98
2022-10-30T01:37:13.772Z,14.68
2022-10-30T01:39:41.538Z,12.43
2022-10-30T01:42:31.090Z,14.02
2022-10-30T01:44:58.294Z,14.68
2022-10-30T01:47:47.531Z,12.93
2022-10-30T01:50:37.639Z,14.10
2022-10-30T01:53:28.034Z,13.23
2022-10-30T01:55:54.715Z,14.18
2022-10-30T01:58:59.993Z,13.48
2022-10-30T02:01:29.017Z,14.80
2022-10-30T02:03:55.982Z,13.98
2022-10-30T02:06:22.941Z,16.02
2022-10-30T02:08:49.664Z,13.32
2022-10-30T02:11:17.058Z,15.02
2022-10-30T02:13:44.085Z,13.40
2022-10-30T02:16:11.082Z,13.80
2022-10-30T02:18:37.911Z,14.48
2022-10-30T02:21:04.837Z,13.32
2022-10-30T02:23:32.944Z,12.90
2022-10-30T02:25:59.840Z,14.20
2022-10-30T02:28:26.700Z,13.95
2022-10-30T02:30:53.515Z,12.40
2022-10-30T02:33:20.364Z,14.68
2022-10-30T02:35:47.126Z,12.48
2022-10-30T02:38:13.854Z,13.73
2022-10-30T02:40:40.574Z,12.88
2022-10-30T02:43:07.368Z,12.82
2022-10-30T02:45:36.947Z,12.05
2022-10-30T02:48:04.019Z,13.23
2022-10-30T02:50:30.955Z,13.82
2022-10-30T02:52:59.542Z,13.63
2022-10-30T02:55:26.642Z,14.73
2022-10-30T02:57:54.565Z,15.02
2022-10-30T03:00:21.367Z,13.32
2022-10-30T03:02:48.252Z,13.07
2022-10-30T03:05:15.056Z,13.73
2022-10-30T03:07:41.838Z,14.68
2022-10-30T03:10:09.001Z,14.75
2022-10-30T03:12:35.735Z,13.93
2022-10-30T03:15:02.634Z,13.75
2022-10-30T03:17:30.094Z,13.70
2022-10-30T03:19:56.948Z,13.23
2022-10-30T03:22:23.785Z,13.40
2022-10-30T03:24:50.494Z,14.15
2022-10-30T03:27:17.503Z,15.98
2022-10-30T03:29:44.212Z,15.90
2022-10-30T03:32:11.743Z,13.38
2022-10-30T03:34:38.740Z,14.10
2022-10-30T03:37:05.545Z,12.93
2022-10-30T03:39:32.279Z,13.15
2022-10-30T03:41:59.123Z,12.70
2022-10-30T03:44:25.861Z,13.82
2022-10-30T03:46:52.620Z,12.63
2022-10-30T03:49:19.331Z,12.73
2022-10-30T03:51:46.074Z,13.18
2022-10-30T03:54:12.834Z,14.88
2022-10-30T03:56:39.663Z,12.73
2022-10-30T03:59:06.389Z,13.20
2022-10-30T04:01:33.295Z,11.50
2022-10-30T04:04:00.143Z,15.05
2022-10-30T04:06:27.010Z,12.90
2022-10-30T04:08:55.397Z,15.00
2022-10-30T04:11:22.244Z,13.48
2022-10-30T04:13:48.999Z,14.23
2022-10-30T04:16:15.807Z,16.88
2022-10-30T04:18:42.573Z,13.15
2022-10-30T04:21:09.267Z,13.52
2022-10-30T04:23:36.123Z,14.15
2022-10-30T04:26:02.933Z,14.82
2022-10-30T04:28:29.652Z,12.43
2022-10-30T04:30:56.639Z,12.73
2022-10-30T04:33:23.425Z,13.18
2022-10-30T04:35:50.146Z,10.90
2022-10-30T04:38:19.634Z,12.65
2022-10-30T04:40:46.596Z,11.27
2022-10-30T04:43:14.104Z,11.60
2022-10-30T04:45:41.633Z,12.98
2022-10-30T04:48:16.577Z,10.13
2022-10-30T04:50:44.119Z,11.90
2022-10-30T04:53:16.622Z,11.95
2022-10-30T04:55:44.545Z,10.68
2022-10-30T04:58:12.496Z,12.30
2022-10-30T05:00:39.530Z,10.73
2022-10-30T05:03:06.424Z,11.65
2022-10-30T05:05:33.211Z,12.35
2022-10-30T05:08:00.420Z,11.40
2022-10-30T05:10:27.701Z,11.77
2022-10-30T05:12:54.593Z,12.38
2022-10-30T05:15:21.809Z,10.25
2022-10-30T05:17:53.000Z,12.23
2022-10-30T05:20:19.835Z,12.40
2022-10-30T05:22:46.818Z,12.23
2022-10-30T05:25:13.632Z,11.82
2022-10-30T05:27:40.377Z,12.30
2022-10-30T05:30:07.760Z,12.15
2022-10-30T05:32:34.425Z,11.70
2022-10-30T05:35:01.151Z,10.88
2022-10-30T05:37:28.095Z,12.07
2022-10-30T05:39:54.920Z,12.43
2022-10-30T05:42:21.872Z,12.38
2022-10-30T05:45:00.964Z,14.30
2022-10-30T05:47:28.736Z,14.88
2022-10-30T05:49:55.500Z,14.32
2022-10-30T05:52:22.338Z,14.07
2022-10-30T05:54:49.104Z,12.10
2022-10-30T05:57:15.857Z,12.48
2022-10-30T05:59:42.633Z,14.98
2022-10-30T06:02:09.449Z,13.38
2022-10-30T06:04:36.285Z,14.55
2022-10-30T06:07:02.988Z,12.38
2022-10-30T06:09:29.878Z,13.02
2022-10-30T06:11:56.715Z,14.10
2022-10-30T06:14:23.495Z,17.33
2022-10-30T06:16:50.316Z,15.82
2022-10-30T06:19:18.776Z,15.50
2022-10-30T06:21:46.326Z,12.10
2022-10-30T06:24:13.697Z,16.08
2022-10-30T06:26:40.922Z,14.25
2022-10-30T06:29:07.917Z,14.23
2022-10-30T06:31:34.705Z,14.05
2022-10-30T06:34:01.426Z,14.35
2022-10-30T06:36:28.217Z,20.25
2022-10-30T06:38:55.375Z,20.02
2022-10-30T06:41:26.073Z,31.10
2022-10-30T06:43:57.191Z,18.52
2022-10-30T06:46:27.054Z,32.42
2022-10-30T06:48:57.509Z,152.45
2022-10-30T06:51:24.530Z,33.65
2022-10-30T06:53:51.733Z,58.45
2022-10-30T06:56:18.536Z,55.53
2022-10-30T06:58:45.300Z,48.78
2022-10-30T07:01:12.136Z,40.60
2022-10-30T07:03:38.813Z,44.22
2022-10-30T07:06:05.924Z,36.42
2022-10-30T07:08:32.729Z,48.20
2022-10-30T07:10:59.550Z,58.08
2022-10-30T07:13:26.297Z,40.33
2022-10-30T07:15:53.161Z,62.47
2022-10-30T07:18:20.034Z,71.53
2022-10-30T07:20:46.828Z,63.67
2022-10-30T07:23:13.596Z,94.88
2022-10-30T07:25:40.349Z,61.10
2022-10-30T07:28:07.152Z,51.38
2022-10-30T07:30:33.909Z,75.00
2022-10-30T07:33:02.977Z,44.42
2022-10-30T07:35:30.899Z,50.80
2022-10-30T07:38:05.668Z,56.97
2022-10-30T07:40:33.243Z,58.45
2022-10-30T07:43:01.953Z,57.20
2022-10-30T07:45:29.817Z,67.97
2022-10-30T07:47:57.086Z,96.38
2022-10-30T07:50:24.656Z,74.30
2022-10-30T07:52:51.426Z,48.85
2022-10-30T07:55:18.166Z,57.88
2022-10-30T07:57:45.028Z,90.38
2022-10-30T08:00:14.380Z,46.08
2022-10-30T08:02:42.111Z,83.90
2022-10-30T08:05:09.811Z,51.22
2022-10-30T08:07:38.016Z,63.20
2022-10-30T08:10:06.477Z,56.67
2022-10-30T08:12:34.510Z,50.70
2022-10-30T08:15:01.746Z,87.00
2022-10-30T08:17:29.009Z,50.80
2022-10-30T08:19:57.114Z,66.38
2022-10-30T08:22:24.470Z,101.28
2022-10-30T08:24:51.468Z,102.03
2022-10-30T08:27:18.788Z,99.50
2022-10-30T08:29:45.529Z,71.50
2022-10-30T08:32:12.314Z,68.63
2022-10-30T08:34:39.176Z,102.93
2022-10-30T08:37:07.935Z,86.70
2022-10-30T08:39:34.666Z,78.47
2022-10-30T08:42:01.476Z,76.07
2022-10-30T08:44:28.255Z,58.97
2022-10-30T08:46:55.034Z,75.72
2022-10-30T08:49:21.801Z,49.42
2022-10-30T08:51:48.649Z,48.13
2022-10-30T08:54:15.365Z,53.83
2022-10-30T08:56:42.557Z,58.28
2022-10-30T08:59:09.276Z,66.60
2022-10-30T09:01:36.834Z,99.10
2022-10-30T09:04:04.263Z,56.70
2022-10-30T09:06:31.940Z,25.55
2022-10-30T09:08:58.789Z,60.42
2022-10-30T09:11:25.721Z,58.28
2022-10-30T09:13:52.539Z,43.92
2022-10-30T09:16:19.310Z,49.75
2022-10-30T09:18:46.078Z,52.35
2022-10-30T09:21:12.831Z,60.60
2022-10-30T09:23:39.576Z,84.28
2022-10-30T09:26:06.800Z,80.18
2022-10-30T09:28:33.645Z,84.03
2022-10-30T09:31:01.809Z,118.13
2022-10-30T09:33:28.978Z,126.85
2022-10-30T09:35:55.904Z,87.97
2022-10-30T09:38:22.701Z,134.48
2022-10-30T09:40:52.332Z,98.70
2022-10-30T09:43:46.237Z,140.93
2022-10-30T09:46:12.983Z,144.15
2022-10-30T09:51:49.454Z,112.55
2022-10-30T09:54:44.203Z,192.00
2022-10-30T09:57:30.911Z,147.05
2022-10-30T10:00:10.495Z,209.65
2022-10-30T10:03:06.366Z,125.90
2022-10-30T10:05:44.890Z,107.22
2022-10-30T10:08:19.364Z,123.30
2022-10-30T10:10:52.827Z,115.13
2022-10-30T10:13:44.843Z,71.35
2022-10-30T10:16:14.399Z,81.65
2022-10-30T10:19:06.121Z,145.23
2022-10-30T10:21:37.378Z,104.90
2022-10-30T10:24:11.902Z,116.60
2022-10-30T10:26:44.691Z,47.13
2022-10-30T10:29:22.255Z,68.22
2022-10-30T10:32:17.725Z,80.55
2022-10-30T10:34:56.425Z,73.82
2022-10-30T10:37:45.739Z,36.60
2022-10-30T10:40:38.882Z,39.90
2022-10-30T10:43:30.272Z,38.83
2022-10-30T10:46:29.615Z,63.42
2022-10-30T10:48:56.304Z,42.50
2022-10-30T10:51:29.964Z,85.25
2022-10-30T10:54:20.069Z,73.47
2022-10-30T10:56:49.540Z,57.72
2022-10-30T10:59:21.260Z,86.13
2022-10-30T11:02:10.947Z,139.80
2022-10-30T11:04:45.542Z,198.80
2022-10-30T11:07:26.341Z,156.55
2022-10-30T11:09:54.839Z,318.55
2022-10-30T11:12:33.880Z,299.17
2022-10-30T11:17:45.542Z,320.02
2022-10-30T11:20:18.585Z,354.08
2022-10-30T11:22:51.341Z,340.55
2022-10-30T11:25:27.031Z,180.07
2022-10-30T11:28:00.484Z,151.68
2022-10-30T11:30:28.915Z,50.88
2022-10-30T11:32:57.320Z,36.88
2022-10-30T11:35:25.357Z,16.05
2022-10-30T11:38:13.291Z,7.00
2022-10-30T11:40:46.546Z,5.80
2022-10-30T11:43:18.904Z,3.70
2022-10-30T11:45:45.826Z,4.45
2022-10-30T11:48:28.049Z,3.83
2022-10-30T11:51:02.460Z,4.05
2022-10-30T11:53:38.626Z,4.32
2022-10-30T11:56:22.251Z,4.72
2022-10-30T11:58:55.602Z,4.72
2022-10-30T12:01:39.206Z,5.65
2022-10-30T12:04:24.210Z,5.32
2022-10-30T12:07:18.536Z,4.68
2022-10-30T12:09:47.067Z,4.32
2022-10-30T12:12:19.810Z,3.97
2022-10-30T12:14:46.695Z,4.30
2022-10-30T12:17:16.829Z,4.72
2022-10-30T12:19:53.531Z,4.70
2022-10-30T12:22:33.985Z,3.67
2022-10-30T12:25:04.326Z,4.20
2022-10-30T12:27:36.750Z,4.07
2022-10-30T12:30:10.871Z,5.20
2022-10-30T12:33:04.356Z,4.43
2022-10-30T12:35:40.199Z,4.47
2022-10-30T12:38:31.942Z,4.32
2022-10-30T12:41:17.597Z,3.63
2022-10-30T12:43:52.127Z,3.58
2022-10-30T12:46:30.334Z,4.22
2022-10-30T12:49:13.352Z,4.15
2022-10-30T12:52:01.388Z,4.00
2022-10-30T12:54:39.574Z,3.88
2022-10-30T12:57:17.021Z,3.80
2022-10-30T12:59:56.718Z,4.95
2022-10-30T13:02:38.316Z,3.60
2022-10-30T13:05:32.505Z,4.00
2022-10-30T13:08:11.166Z,3.70
2022-10-30T13:10:46.066Z,4.65
2022-10-30T13:13:22.096Z,4.00
2022-10-30T13:15:52.529Z,3.83
2022-10-30T13:18:22.196Z,4.07
2022-10-30T13:20:56.179Z,3.92
2022-10-30T13:23:34.173Z,3.97
2022-10-30T13:26:06.861Z,3.67
2022-10-30T13:28:44.108Z,4.70
2022-10-30T13:31:21.728Z,4.30
2022-10-30T13:34:16.075Z,3.90
2022-10-30T13:36:57.869Z,4.40
2022-10-30T13:42:27.806Z,3.65
2022-10-30T13:45:06.369Z,3.65
2022-10-30T13:48:05.002Z,4.43
2022-10-30T13:51:01.925Z,3.63
2022-10-30T13:53:33.459Z,4.28
2022-10-30T13:56:00.539Z,4.35
2022-10-30T13:58:46.288Z,4.75
2022-10-30T14:01:37.215Z,3.67
2022-10-30T14:04:12.224Z,5.20
2022-10-30T14:06:53.504Z,4.68
2022-10-30T14:09:45.508Z,5.57
2022-10-30T14:12:54.105Z,4.20
2022-10-30T14:15:43.001Z,5.07
2022-10-30T14:18:12.868Z,5.85
2022-10-30T14:20:41.322Z,5.22
2022-10-30T14:23:19.995Z,4.72
2022-10-30T14:26:05.471Z,5.30
2022-10-30T14:28:35.725Z,5.13
2022-10-30T14:31:08.808Z,4.70
2022-10-30T14:33:55.695Z,4.45
2022-10-30T14:36:26.983Z,4.35
2022-10-30T14:39:00.854Z,4.10
2022-10-30T14:41:32.099Z,4.10
2022-10-30T14:44:13.777Z,5.30
2022-10-30T14:47:09.834Z,4.47
2022-10-30T14:49:42.179Z,4.57
2022-10-30T14:55:24.602Z,5.00
2022-10-30T14:58:21.034Z,5.22
2022-10-30T15:00:48.345Z,5.05
2022-10-30T15:03:52.528Z,4.63
2022-10-30T15:06:42.555Z,5.55
2022-10-30T15:09:16.948Z,5.68
2022-10-30T15:11:52.688Z,6.80
2022-10-30T15:14:52.547Z,5.88
2022-10-30T15:17:40.045Z,7.82
2022-10-30T15:20:14.868Z,8.25
2022-10-30T15:22:42.223Z,8.30
2022-10-30T15:25:44.152Z,7.32
2022-10-30T15:28:18.711Z,8.73
2022-10-30T15:31:04.154Z,8.40
2022-10-30T15:33:32.504Z,11.10
2022-10-30T15:36:00.007Z,10.60
2022-10-30T15:38:26.980Z,8.45
2022-10-30T15:40:59.665Z,10.65
2022-10-30T15:43:37.410Z,7.72
2022-10-30T15:46:10.128Z,7.50
2022-10-30T15:48:41.020Z,8.85
2022-10-30T15:51:16.806Z,9.82
2022-10-30T15:53:43.561Z,11.43
2022-10-30T15:56:29.155Z,10.57
2022-10-30T15:59:06.756Z,8.90
2022-10-30T16:01:54.887Z,9.45
2022-10-30T16:04:33.171Z,8.38
2022-10-30T16:07:04.397Z,8.05
2022-10-30T16:09:31.204Z,7.50
2022-10-30T16:12:00.494Z,7.00
2022-10-30T16:14:34.458Z,6.82
2022-10-30T16:17:01.844Z,6.70
2022-10-30T16:19:31.405Z,7.38
2022-10-30T16:21:59.436Z,8.77
2022-10-30T16:24:36.023Z,8.25
2022-10-30T16:27:14.114Z,8.60
2022-10-30T16:29:41.916Z,9.98
2022-10-30T16:34:45.632Z,12.32
2022-10-30T16:37:20.788Z,10.98
2022-10-30T16:39:50.717Z,11.80
2022-10-30T16:42:26.897Z,9.85
2022-10-30T16:45:32.188Z,11.10
2022-10-30T16:48:09.322Z,10.07
2022-10-30T16:50:38.441Z,8.35
2022-10-30T16:53:18.303Z,8.35
2022-10-30T16:55:45.368Z,8.27
2022-10-30T16:58:14.755Z,7.63
2022-10-30T17:00:48.224Z,7.90
2022-10-30T17:03:15.078Z,17.33
2022-10-30T17:05:47.145Z,9.38
2022-10-30T17:08:16.752Z,10.95
2022-10-30T17:10:43.499Z,9.80
2022-10-30T17:13:33.483Z,8.80
2022-10-30T17:16:12.523Z,11.57
2022-10-30T17:18:39.289Z,10.23
2022-10-30T17:21:11.849Z,10.27
2022-10-30T17:23:48.600Z,10.98
2022-10-30T17:26:15.857Z,13.25
2022-10-30T17:28:43.282Z,15.52
2022-10-30T17:31:42.764Z,13.07
2022-10-30T17:34:14.312Z,12.93
2022-10-30T17:36:41.647Z,11.82
2022-10-30T17:39:09.209Z,12.68
2022-10-30T17:41:36.778Z,10.43
2022-10-30T17:44:05.152Z,10.90
2022-10-30T17:46:32.156Z,13.23
2022-10-30T17:48:59.816Z,13.38
2022-10-30T17:51:26.844Z,10.77
2022-10-30T17:53:53.703Z,11.40
2022-10-30T17:56:27.722Z,14.05
2022-10-30T17:58:55.259Z,13.45
2022-10-30T18:01:24.869Z,13.57
2022-10-30T18:03:54.969Z,14.98
2022-10-30T18:06:24.914Z,14.38
2022-10-30T18:08:53.272Z,13.45
2022-10-30T18:11:22.190Z,14.45
2022-10-30T18:13:50.495Z,15.93
2022-10-30T18:16:19.140Z,12.38
2022-10-30T18:18:46.034Z,13.48
2022-10-30T18:21:23.181Z,13.43
2022-10-30T18:23:52.712Z,10.88
2022-10-30T18:26:23.233Z,11.07
2022-10-30T18:28:50.108Z,11.25
2022-10-30T18:31:19.564Z,11.45
2022-10-30T18:33:47.346Z,13.57
2022-10-30T18:36:24.953Z,13.85
2022-10-30T18:38:52.858Z,13.10
2022-10-30T18:41:33.450Z,12.45
2022-10-30T18:44:00.594Z,13.55
2022-10-30T18:46:29.466Z,13.10
2022-10-30T18:48:56.338Z,13.40
2022-10-30T18:51:25.705Z,11.60
2022-10-30T18:53:52.782Z,11.73
2022-10-30T18:56:24.791Z,11.85
2022-10-30T18:58:56.428Z,14.93
2022-10-30T19:01:28.645Z,11.95
2022-10-30T19:03:55.539Z,15.48
2022-10-30T19:06:24.164Z,11.45
2022-10-30T19:08:51.041Z,11.43
2022-10-30T19:11:24.660Z,13.50
2022-10-30T19:13:53.406Z,13.00
2022-10-30T19:16:20.820Z,11.13
2022-10-30T19:18:48.590Z,10.68
2022-10-30T19:21:18.430Z,11.40
2022-10-30T19:23:45.750Z,11.48
2022-10-30T19:26:17.130Z,13.73
2022-10-30T19:28:44.897Z,12.35
2022-10-30T19:31:15.037Z,11.82
2022-10-30T19:33:42.248Z,13.98
2022-10-30T19:36:27.501Z,16.33
2022-10-30T19:38:54.727Z,26.38
2022-10-30T19:41:21.698Z,26.33
2022-10-30T19:43:48.519Z,21.50
2022-10-30T19:46:15.505Z,21.02
2022-10-30T19:48:59.533Z,22.00
2022-10-30T19:51:28.165Z,17.00
2022-10-30T19:53:54.990Z,14.82
2022-10-30T19:56:22.438Z,16.65
2022-10-30T19:58:49.736Z,14.73
2022-10-30T20:01:17.104Z,17.95
2022-10-30T20:03:44.226Z,18.13
2022-10-30T20:06:12.490Z,17.35
2022-10-30T20:08:39.596Z,16.80
2022-10-30T20:11:06.506Z,14.52
2022-10-30T20:13:33.765Z,12.75
2022-10-30T20:16:04.673Z,11.73
2022-10-30T20:18:34.830Z,12.05
2022-10-30T20:21:04.179Z,9.90
2022-10-30T20:23:31.198Z,9.77
2022-10-30T20:26:00.929Z,8.88
2022-10-30T20:28:36.540Z,9.23
2022-10-30T20:31:04.236Z,8.45
2022-10-30T20:33:31.105Z,8.40
2022-10-30T20:35:58.090Z,7.70
2022-10-30T20:38:29.070Z,8.75
2022-10-30T20:40:56.649Z,8.93
2022-10-30T20:43:37.773Z,10.38
2022-10-30T20:46:07.080Z,11.15
2022-10-30T20:48:33.845Z,10.30
2022-10-30T20:51:01.814Z,9.27
2022-10-30T20:53:29.971Z,12.10
2022-10-30T20:55:56.846Z,10.25
2022-10-30T20:58:24.247Z,9.43
2022-10-30T21:00:53.381Z,8.38
2022-10-30T21:03:20.175Z,7.85
2022-10-30T21:05:53.765Z,7.30
2022-10-30T21:08:20.504Z,7.10
2022-10-30T21:10:47.217Z,6.95
2022-10-30T21:13:13.980Z,7.75
2022-10-30T21:15:42.600Z,7.63
2022-10-30T21:18:11.191Z,6.68
2022-10-30T21:20:38.323Z,7.70
2022-10-30T21:23:06.246Z,7.13
2022-10-30T21:25:33.236Z,9.30
2022-10-30T21:28:00.924Z,6.72
2022-10-30T21:30:28.593Z,7.15
2022-10-30T21:32:55.393Z,7.03
2022-10-30T21:35:22.198Z,8.40
2022-10-30T21:37:49.149Z,7.90
2022-10-30T21:40:15.988Z,7.65
2022-10-30T21:42:42.737Z,8.05
2022-10-30T21:45:10.310Z,9.25
2022-10-30T21:47:37.075Z,9.52
2022-10-30T21:50:07.565Z,7.95
2022-10-30T21:52:36.225Z,8.75
2022-10-30T21:55:03.158Z,9.55
2022-10-30T21:57:30.173Z,7.65
2022-10-30T21:59:58.930Z,8.60
2022-10-30T22:02:28.536Z,8.10
2022-10-30T22:04:55.244Z,8.18
2022-10-30T22:07:22.037Z,7.53
2022-10-30T22:09:48.822Z,8.10
2022-10-30T22:12:15.640Z,7.70
2022-10-30T22:14:42.431Z,7.93
2022-10-30T22:17:09.543Z,8.27
2022-10-30T22:19:36.324Z,8.38
2022-10-30T22:22:03.160Z,7.32
2022-10-30T22:24:29.899Z,7.82
2022-10-30T22:26:56.650Z,7.88
2022-10-30T22:29:23.400Z,7.63
2022-10-30T22:31:50.280Z,8.20
2022-10-30T22:34:17.043Z,7.18
2022-10-30T22:36:43.865Z,8.68
2022-10-30T22:39:13.300Z,7.85
2022-10-30T22:41:40.936Z,8.45
2022-10-30T22:44:11.684Z,8.00
2022-10-30T22:46:39.139Z,7.82
2022-10-30T22:49:06.851Z,9.38
2022-10-30T22:51:35.401Z,9.23
2022-10-30T22:54:04.199Z,7.90
2022-10-30T22:56:33.956Z,8.20
2022-10-30T22:59:14.546Z,9.70
2022-10-30T23:01:41.986Z,9.38
2022-10-30T23:04:11.101Z,7.95
2022-10-30T23:06:38.258Z,9.40
2022-10-30T23:09:08.587Z,7.90
2022-10-30T23:11:35.820Z,10.50
2022-10-30T23:14:02.596Z,10.05
2022-10-30T23:16:29.615Z,8.07
2022-10-30T23:18:58.537Z,8.57
2022-10-30T23:21:28.008Z,8.90
2022-10-30T23:23:55.568Z,11.20
2022-10-30T23:26:24.801Z,9.95
2022-10-30T23:28:53.929Z,11.38
2022-10-30T23:31:29.466Z,10.63
2022-10-30T23:33:58.739Z,11.23
2022-10-30T23:36:25.792Z,12.90
2022-10-30T23:39:03.906Z,16.00
2022-10-30T23:41:32.132Z,15.52
2022-10-30T23:44:01.976Z,16.27
2022-10-30T23:46:29.196Z,12.13
2022-10-30T23:48:55.950Z,13.77
2022-10-30T23:51:23.361Z,14.95
2022-10-30T23:53:50.654Z,14.80
2022-10-30T23:56:18.364Z,14.45
2022-10-30T23:58:47.047Z,14.70
